createdAt,value
2017-08-03T00:00:31.749Z,22.40
2017-08-03T00:02:59.248Z,22.40
2017-08-03T00:05:25.897Z,22.50
2017-08-03T00:07:52.167Z,22.50
2017-08-03T00:10:18.487Z,22.40
2017-08-03T00:12:45.691Z,22.30
2017-08-03T00:15:13.108Z,22.30
2017-08-03T00:17:39.374Z,22.30
2017-08-03T00:20:09.247Z,22.40
2017-08-03T00:22:36.483Z,22.40
2017-08-03T00:25:02.779Z,22.40
2017-08-03T00:27:29.642Z,22.30
2017-08-03T00:29:57.238Z,22.40
2017-08-03T00:32:23.535Z,22.40
2017-08-03T00:34:51.361Z,22.30
2017-08-03T00:37:17.629Z,22.40
2017-08-03T00:39:44.523Z,22.30
2017-08-03T00:42:11.398Z,22.30
2017-08-03T00:44:39.239Z,22.40
2017-08-03T00:47:05.501Z,22.40
2017-08-03T00:49:32.712Z,22.40
2017-08-03T00:51:58.996Z,22.30
2017-08-03T00:54:25.234Z,22.10
2017-08-03T00:56:52.525Z,22.00
2017-08-03T00:59:18.803Z,22.00
2017-08-03T01:01:45.065Z,22.10
2017-08-03T01:04:12.279Z,22.20
2017-08-03T01:06:51.094Z,22.40
2017-08-03T01:09:17.356Z,22.50
2017-08-03T01:11:43.620Z,22.50
2017-08-03T01:14:09.900Z,22.70
2017-08-03T01:16:37.145Z,22.70
2017-08-03T01:19:03.432Z,22.80
2017-08-03T01:21:30.604Z,22.70
2017-08-03T01:23:58.095Z,22.70
2017-08-03T01:26:25.306Z,22.70
2017-08-03T01:28:52.200Z,22.70
2017-08-03T01:31:18.527Z,22.60
2017-08-03T01:33:44.796Z,22.40
2017-08-03T01:36:17.254Z,22.30
2017-08-03T01:38:46.796Z,22.10
2017-08-03T01:41:18.800Z,22.30
2017-08-03T01:43:45.124Z,22.30
2017-08-03T01:46:14.297Z,22.40
2017-08-03T01:48:40.617Z,22.50
2017-08-03T01:51:08.202Z,22.40
2017-08-03T01:53:35.989Z,22.40
2017-08-03T01:56:02.862Z,22.50
2017-08-03T01:58:29.761Z,22.50
2017-08-03T02:00:57.030Z,22.50
2017-08-03T02:03:23.944Z,22.20
2017-08-03T02:05:51.938Z,22.20
2017-08-03T02:08:18.994Z,22.30
2017-08-03T02:10:45.269Z,22.40
2017-08-03T02:13:12.356Z,22.30
2017-08-03T02:15:39.184Z,22.20
2017-08-03T02:18:06.477Z,22.20
2017-08-03T02:20:33.600Z,22.20
2017-08-03T02:23:02.540Z,22.30
2017-08-03T02:25:28.813Z,22.20
2017-08-03T02:27:55.412Z,22.20
2017-08-03T02:30:21.700Z,22.10
2017-08-03T02:32:47.979Z,22.20
2017-08-03T02:35:14.631Z,22.10
2017-08-03T02:37:40.913Z,22.10
2017-08-03T02:40:09.660Z,22.20
2017-08-03T02:42:35.917Z,22.20
2017-08-03T02:45:02.675Z,22.10
2017-08-03T02:47:29.886Z,22.10
2017-08-03T02:49:56.165Z,22.10
2017-08-03T02:52:23.036Z,22.10
2017-08-03T02:54:49.292Z,22.00
2017-08-03T02:57:17.370Z,21.90
2017-08-03T02:59:43.630Z,21.70
2017-08-03T03:02:11.200Z,21.70
2017-08-03T03:04:37.445Z,21.70
2017-08-03T03:07:04.349Z,21.80
2017-08-03T03:09:30.649Z,21.70
2017-08-03T03:11:57.786Z,21.50
2017-08-03T03:14:24.068Z,21.60
2017-08-03T03:16:51.059Z,21.70
2017-08-03T03:19:17.332Z,21.70
2017-08-03T03:21:43.591Z,21.60
2017-08-03T03:24:10.243Z,21.90
2017-08-03T03:26:36.521Z,21.90
2017-08-03T03:29:02.792Z,21.90
2017-08-03T03:31:29.066Z,21.90
2017-08-03T03:33:56.827Z,21.80
2017-08-03T03:36:23.122Z,21.70
2017-08-03T03:38:49.399Z,21.80
2017-08-03T03:41:16.637Z,21.90
2017-08-03T03:43:42.923Z,22.10
2017-08-03T03:46:09.578Z,22.10
2017-08-03T03:48:35.896Z,22.10
2017-08-03T03:51:02.188Z,22.20
2017-08-03T03:53:28.467Z,22.10
2017-08-03T03:55:55.317Z,22.00
2017-08-03T03:58:21.625Z,21.90
2017-08-03T04:00:47.876Z,21.80
2017-08-03T04:03:14.175Z,21.90
2017-08-03T04:05:40.813Z,22.10
2017-08-03T04:08:07.734Z,22.00
2017-08-03T04:10:34.017Z,22.00
2017-08-03T04:13:01.141Z,22.10
2017-08-03T04:15:27.434Z,22.10
2017-08-03T04:17:54.636Z,22.20
2017-08-03T04:20:20.925Z,22.10
2017-08-03T04:22:47.177Z,22.10
2017-08-03T04:25:13.463Z,21.80
2017-08-03T04:27:39.743Z,21.80
2017-08-03T04:30:06.438Z,21.70
2017-08-03T04:32:32.735Z,21.70
2017-08-03T04:34:59.899Z,21.70
2017-08-03T04:37:26.978Z,21.70
2017-08-03T04:39:53.257Z,21.80
2017-08-03T04:42:20.418Z,21.90
2017-08-03T04:44:46.683Z,22.00
2017-08-03T04:47:12.952Z,22.10
2017-08-03T04:49:39.243Z,22.10
2017-08-03T04:52:05.541Z,22.10
2017-08-03T04:54:31.835Z,22.20
2017-08-03T04:56:58.430Z,22.30
2017-08-03T04:59:25.587Z,22.30
2017-08-03T05:01:51.888Z,22.30
2017-08-03T05:04:18.168Z,22.40
2017-08-03T05:06:45.399Z,22.50
2017-08-03T05:09:12.691Z,22.60
2017-08-03T05:11:39.456Z,22.60
2017-08-03T05:14:05.740Z,22.60
2017-08-03T05:16:32.019Z,22.60
2017-08-03T05:18:58.297Z,22.60
2017-08-03T05:21:27.566Z,22.60
2017-08-03T05:23:54.300Z,22.50
2017-08-03T05:26:20.585Z,22.50
2017-08-03T05:28:46.866Z,22.60
2017-08-03T05:31:13.150Z,22.80
2017-08-03T05:33:39.418Z,22.90
2017-08-03T05:36:05.689Z,22.90
2017-08-03T05:38:31.949Z,22.90
2017-08-03T05:40:58.235Z,23.00
2017-08-03T05:43:25.181Z,23.00
2017-08-03T05:45:51.461Z,23.10
2017-08-03T05:48:17.715Z,23.00
2017-08-03T05:50:45.831Z,23.00
2017-08-03T05:53:13.479Z,23.40
2017-08-03T05:55:40.681Z,23.40
2017-08-03T05:58:06.948Z,23.30
2017-08-03T06:00:33.853Z,23.40
2017-08-03T06:03:00.138Z,23.60
2017-08-03T06:05:26.408Z,23.80
2017-08-03T06:07:52.673Z,23.90
2017-08-03T06:10:18.940Z,24.00
2017-08-03T06:12:45.602Z,24.00
2017-08-03T06:15:11.902Z,23.90
2017-08-03T06:17:38.169Z,24.10
2017-08-03T06:20:04.438Z,24.00
2017-08-03T06:22:30.737Z,24.30
2017-08-03T06:24:57.013Z,24.30
2017-08-03T06:27:23.282Z,24.40
2017-08-03T06:29:49.541Z,24.40
2017-08-03T06:32:15.799Z,24.40
2017-08-03T06:34:42.916Z,24.40
2017-08-03T06:37:09.183Z,24.40
2017-08-03T06:39:35.424Z,24.50
2017-08-03T06:42:01.713Z,24.30
2017-08-03T06:44:27.978Z,24.50
2017-08-03T06:46:54.259Z,24.50
2017-08-03T06:49:20.520Z,24.80
2017-08-03T06:51:46.797Z,25.30
2017-08-03T06:54:13.054Z,25.70
2017-08-03T06:56:39.615Z,25.70
2017-08-03T06:59:05.879Z,25.50
2017-08-03T07:01:32.159Z,25.60
2017-08-03T07:03:58.451Z,25.60
2017-08-03T07:06:24.700Z,25.60
2017-08-03T07:08:50.988Z,25.70
2017-08-03T07:11:17.250Z,25.90
2017-08-03T07:13:43.504Z,25.90
2017-08-03T07:16:09.775Z,25.70
2017-08-03T07:18:36.458Z,25.60
2017-08-03T07:21:02.724Z,25.70
2017-08-03T07:23:28.973Z,25.60
2017-08-03T07:25:55.254Z,25.70
2017-08-03T07:28:21.548Z,25.70
2017-08-03T07:30:47.833Z,25.80
2017-08-03T07:33:14.158Z,25.80
2017-08-03T07:35:40.684Z,25.90
2017-08-03T07:38:07.524Z,25.80
2017-08-03T07:40:33.796Z,25.90
2017-08-03T07:43:00.075Z,26.00
2017-08-03T07:45:27.122Z,26.30
2017-08-03T07:47:53.393Z,26.50
2017-08-03T07:50:19.673Z,27.00
2017-08-03T07:52:45.958Z,27.20
2017-08-03T07:55:12.215Z,27.40
2017-08-03T07:57:38.478Z,27.40
2017-08-03T08:00:04.809Z,27.10
2017-08-03T08:02:31.110Z,26.90
2017-08-03T08:04:57.404Z,26.70
2017-08-03T08:07:23.726Z,26.40
2017-08-03T08:09:50.091Z,26.20
2017-08-03T08:12:16.504Z,26.40
2017-08-03T08:14:43.182Z,26.40
2017-08-03T08:17:09.474Z,26.40
2017-08-03T08:19:36.737Z,26.40
2017-08-03T08:22:03.026Z,26.60
2017-08-03T08:24:29.645Z,26.80
2017-08-03T08:26:55.930Z,26.80
2017-08-03T08:29:22.215Z,26.80
2017-08-03T08:31:48.498Z,26.50
2017-08-03T08:34:14.789Z,26.30
2017-08-03T08:36:41.491Z,26.30
2017-08-03T08:39:08.337Z,26.30
2017-08-03T08:41:34.641Z,26.40
2017-08-03T08:44:00.924Z,26.20
2017-08-03T08:46:27.552Z,26.10
2017-08-03T08:48:54.763Z,26.20
2017-08-03T08:51:21.056Z,26.30
2017-08-03T08:53:47.345Z,26.30
2017-08-03T08:56:14.160Z,26.40
2017-08-03T08:58:41.621Z,26.60
2017-08-03T09:01:07.894Z,26.70
2017-08-03T09:03:34.164Z,26.90
2017-08-03T09:06:00.479Z,26.70
2017-08-03T09:08:26.753Z,26.60
2017-08-03T09:10:53.036Z,26.70
2017-08-03T09:13:19.304Z,26.70
2017-08-03T09:15:45.600Z,26.90
2017-08-03T09:18:11.869Z,26.80
2017-08-03T09:20:38.432Z,27.10
2017-08-03T09:23:04.697Z,27.40
2017-08-03T09:25:30.994Z,27.70
2017-08-03T09:27:57.303Z,28.00
2017-08-03T09:30:23.592Z,28.10
2017-08-03T09:32:49.921Z,28.40
2017-08-03T09:35:16.837Z,28.70
2017-08-03T09:37:44.460Z,29.20
2017-08-03T09:40:10.753Z,29.30
2017-08-03T09:42:37.423Z,29.60
2017-08-03T09:45:03.678Z,30.10
2017-08-03T09:47:29.948Z,30.60
2017-08-03T09:49:56.252Z,31.00
2017-08-03T09:52:22.898Z,31.10
2017-08-03T09:54:49.225Z,31.10
2017-08-03T09:57:15.488Z,31.10
2017-08-03T09:59:41.832Z,31.10
2017-08-03T10:02:08.097Z,31.30
2017-08-03T10:04:34.396Z,31.20
2017-08-03T10:07:00.733Z,31.20
2017-08-03T10:09:27.020Z,30.90
2017-08-03T10:11:53.315Z,30.80
2017-08-03T10:14:19.963Z,31.10
2017-08-03T10:16:46.606Z,31.10
2017-08-03T10:19:13.253Z,31.60
2017-08-03T10:21:39.553Z,31.60
2017-08-03T10:24:05.825Z,32.00
2017-08-03T10:26:32.118Z,32.30
2017-08-03T10:28:58.769Z,32.50
2017-08-03T10:31:25.416Z,32.70
2017-08-03T10:33:51.751Z,32.70
2017-08-03T10:36:18.006Z,33.20
2017-08-03T10:38:44.316Z,33.80
2017-08-03T10:41:10.576Z,33.70
2017-08-03T10:43:36.820Z,33.20
2017-08-03T10:46:03.105Z,33.20
2017-08-03T10:48:29.373Z,33.10
2017-08-03T10:50:55.664Z,33.00
2017-08-03T10:53:21.959Z,33.10
2017-08-03T10:55:48.241Z,33.20
2017-08-03T10:58:14.525Z,33.40
2017-08-03T11:00:41.241Z,33.60
2017-08-03T11:03:07.537Z,33.60
2017-08-03T11:05:33.826Z,33.50
2017-08-03T11:08:00.480Z,33.50
2017-08-03T11:10:26.785Z,33.50
2017-08-03T11:12:53.102Z,33.50
2017-08-03T11:15:19.383Z,33.50
2017-08-03T11:17:45.710Z,33.60
2017-08-03T11:20:11.985Z,33.70
2017-08-03T11:22:38.708Z,33.10
2017-08-03T11:25:04.998Z,32.80
2017-08-03T11:27:31.241Z,32.40
2017-08-03T11:29:57.542Z,32.00
2017-08-03T11:32:24.189Z,31.60
2017-08-03T11:34:50.462Z,31.60
2017-08-03T11:37:16.759Z,31.40
2017-08-03T11:39:43.039Z,31.30
2017-08-03T11:42:09.939Z,31.80
2017-08-03T11:44:36.232Z,33.00
2017-08-03T11:47:02.494Z,34.60
2017-08-03T11:49:28.818Z,37.00
2017-08-03T11:51:55.121Z,38.50
2017-08-03T11:54:21.377Z,38.50
2017-08-03T11:56:47.674Z,37.30
2017-08-03T11:59:13.934Z,35.90
2017-08-03T12:01:40.484Z,35.20
2017-08-03T12:04:06.759Z,34.10
2017-08-03T12:06:33.067Z,33.20
2017-08-03T12:08:59.346Z,32.60
2017-08-03T12:11:25.634Z,32.40
2017-08-03T12:13:51.929Z,32.40
2017-08-03T12:16:18.217Z,32.40
2017-08-03T12:18:44.517Z,31.80
2017-08-03T12:21:10.825Z,31.50
2017-08-03T12:23:37.093Z,31.10
2017-08-03T12:26:03.423Z,30.70
2017-08-03T12:28:29.702Z,30.60
2017-08-03T12:30:56.027Z,30.50
2017-08-03T12:33:22.301Z,30.40
2017-08-03T12:35:49.424Z,30.40
2017-08-03T12:38:15.687Z,30.30
2017-08-03T12:40:41.975Z,30.30
2017-08-03T12:43:08.265Z,30.30
2017-08-03T12:45:34.910Z,30.10
2017-08-03T12:48:01.565Z,30.10
2017-08-03T12:50:27.883Z,30.10
2017-08-03T12:52:54.163Z,29.80
2017-08-03T12:55:20.433Z,29.50
2017-08-03T12:57:47.077Z,29.00
2017-08-03T13:00:13.781Z,28.30
2017-08-03T13:02:40.839Z,28.30
2017-08-03T13:05:07.445Z,27.90
2017-08-03T13:07:33.730Z,27.80
2017-08-03T13:09:59.993Z,27.80
2017-08-03T13:12:26.314Z,27.80
2017-08-03T13:14:52.572Z,27.80
2017-08-03T13:17:18.882Z,27.40
2017-08-03T13:19:45.144Z,27.40
2017-08-03T13:22:11.450Z,27.50
2017-08-03T13:24:37.725Z,27.40
2017-08-03T13:27:08.626Z,27.40
2017-08-03T13:29:34.938Z,27.30
2017-08-03T13:32:01.565Z,27.00
2017-08-03T13:34:27.837Z,26.90
2017-08-03T13:36:54.712Z,26.90
2017-08-03T13:39:21.873Z,27.20
2017-08-03T13:41:48.108Z,27.20
2017-08-03T13:44:14.393Z,27.30
2017-08-03T13:46:40.643Z,27.20
2017-08-03T13:49:07.249Z,27.00
2017-08-03T13:51:33.530Z,27.00
2017-08-03T13:53:59.802Z,26.70
2017-08-03T13:56:26.086Z,27.60
2017-08-03T13:58:52.902Z,30.00
2017-08-03T14:01:19.567Z,33.60
2017-08-03T14:03:45.833Z,33.60
2017-08-03T14:06:13.111Z,35.70
2017-08-03T14:08:39.404Z,38.10
2017-08-03T14:11:05.684Z,39.60
2017-08-03T14:13:32.311Z,38.90
2017-08-03T14:15:58.620Z,38.90
2017-08-03T14:18:24.876Z,38.10
2017-08-03T14:20:51.210Z,37.30
2017-08-03T14:23:18.774Z,37.50
2017-08-03T14:25:45.056Z,37.60
2017-08-03T14:28:12.110Z,38.70
2017-08-03T14:30:38.363Z,39.00
2017-08-03T14:33:04.681Z,39.30
2017-08-03T14:35:30.962Z,39.20
2017-08-03T14:37:57.542Z,38.60
2017-08-03T14:40:23.809Z,37.40
2017-08-03T14:42:51.554Z,36.30
2017-08-03T14:45:17.837Z,35.40
2017-08-03T14:47:44.132Z,34.50
2017-08-03T14:50:10.475Z,33.70
2017-08-03T14:52:36.736Z,32.90
2017-08-03T14:55:03.004Z,32.40
2017-08-03T14:57:29.292Z,31.80
2017-08-03T14:59:55.850Z,31.50
2017-08-03T15:02:22.108Z,31.30
2017-08-03T15:04:48.381Z,31.10
2017-08-03T15:07:14.652Z,30.80
2017-08-03T15:09:40.947Z,30.40
2017-08-03T15:12:07.232Z,30.30
2017-08-03T15:14:33.496Z,30.20
2017-08-03T15:16:59.774Z,30.30
2017-08-03T15:19:26.984Z,30.60
2017-08-03T15:21:53.289Z,30.90
2017-08-03T15:24:20.167Z,31.10
2017-08-03T15:26:46.502Z,31.70
2017-08-03T15:29:12.782Z,32.80
2017-08-03T15:31:39.074Z,34.20
2017-08-03T15:34:05.365Z,34.70
2017-08-03T15:36:31.626Z,36.80
2017-08-03T15:38:57.908Z,37.80
2017-08-03T15:41:24.193Z,38.00
2017-08-03T15:43:50.467Z,39.30
2017-08-03T15:46:16.733Z,39.10
2017-08-03T15:48:43.490Z,38.20
2017-08-03T15:51:09.826Z,37.90
2017-08-03T15:53:36.103Z,39.30
2017-08-03T15:56:02.389Z,39.30
2017-08-03T15:58:28.694Z,38.30
2017-08-03T16:00:54.991Z,37.30
2017-08-03T16:03:21.275Z,36.50
2017-08-03T16:05:47.599Z,35.80
2017-08-03T16:08:13.885Z,35.60
2017-08-03T16:10:40.555Z,35.20
2017-08-03T16:13:06.815Z,34.40
2017-08-03T16:15:33.209Z,33.70
2017-08-03T16:17:59.460Z,32.90
2017-08-03T16:20:25.746Z,32.30
2017-08-03T16:22:52.027Z,31.90
2017-08-03T16:25:18.322Z,31.50
2017-08-03T16:27:44.638Z,30.90
2017-08-03T16:30:10.928Z,30.10
2017-08-03T16:32:37.614Z,30.40
2017-08-03T16:35:03.887Z,30.40
2017-08-03T16:37:30.192Z,30.70
2017-08-03T16:39:56.466Z,30.50
2017-08-03T16:42:23.204Z,30.70
2017-08-03T16:44:49.456Z,30.70
2017-08-03T16:47:15.748Z,30.60
2017-08-03T16:49:42.405Z,30.50
2017-08-03T16:52:08.698Z,30.60
2017-08-03T16:54:34.983Z,30.50
2017-08-03T16:57:01.270Z,30.40
2017-08-03T16:59:27.929Z,30.60
2017-08-03T17:01:54.232Z,30.60
2017-08-03T17:04:20.626Z,30.70
2017-08-03T17:06:47.287Z,30.70
2017-08-03T17:09:13.574Z,30.80
2017-08-03T17:11:39.863Z,30.80
2017-08-03T17:14:06.151Z,30.90
2017-08-03T17:16:32.429Z,30.90
2017-08-03T17:18:58.758Z,30.70
2017-08-03T17:21:25.414Z,30.20
2017-08-03T17:23:52.087Z,30.00
2017-08-03T17:26:18.354Z,30.00
2017-08-03T17:28:44.662Z,29.70
2017-08-03T17:31:10.948Z,29.70
2017-08-03T17:33:37.248Z,29.60
2017-08-03T17:36:03.516Z,29.50
2017-08-03T17:38:29.792Z,29.40
2017-08-03T17:40:56.086Z,29.40
2017-08-03T17:43:22.349Z,29.20
2017-08-03T17:45:48.724Z,29.10
2017-08-03T17:48:15.028Z,29.10
2017-08-03T17:50:41.342Z,29.00
2017-08-03T17:53:07.642Z,29.00
2017-08-03T17:55:33.913Z,29.10
2017-08-03T17:58:00.250Z,29.00
2017-08-03T18:00:26.901Z,28.70
2017-08-03T18:02:53.569Z,28.60
2017-08-03T18:05:19.847Z,28.60
2017-08-03T18:07:46.247Z,28.60
2017-08-03T18:10:12.545Z,28.20
2017-08-03T18:12:38.872Z,28.30
2017-08-03T18:15:05.209Z,28.30
2017-08-03T18:17:31.510Z,28.10
2017-08-03T18:19:57.813Z,28.00
2017-08-03T18:22:24.098Z,28.10
2017-08-03T18:24:50.396Z,28.10
2017-08-03T18:27:16.735Z,27.90
2017-08-03T18:29:43.058Z,27.80
2017-08-03T18:32:09.329Z,27.60
2017-08-03T18:34:35.634Z,27.40
2017-08-03T18:37:01.889Z,27.20
2017-08-03T18:39:28.188Z,27.10
2017-08-03T18:41:54.919Z,27.00
2017-08-03T18:44:21.223Z,27.00
2017-08-03T18:46:47.499Z,26.90
2017-08-03T18:49:13.811Z,26.90
2017-08-03T18:51:40.149Z,26.90
2017-08-03T18:54:06.852Z,26.70
2017-08-03T18:56:33.112Z,26.70
2017-08-03T18:58:59.415Z,26.70
2017-08-03T19:01:26.026Z,26.60
2017-08-03T19:03:52.330Z,26.60
2017-08-03T19:06:18.647Z,26.50
2017-08-03T19:08:44.955Z,26.50
2017-08-03T19:11:11.305Z,26.40
2017-08-03T19:13:37.981Z,26.30
2017-08-03T19:16:04.289Z,26.20
2017-08-03T19:18:30.620Z,26.10
2017-08-03T19:20:56.910Z,26.00
2017-08-03T19:23:23.209Z,26.10
2017-08-03T19:25:49.532Z,26.10
2017-08-03T19:28:15.825Z,26.10
2017-08-03T19:30:42.491Z,26.00
2017-08-03T19:33:08.798Z,26.10
2017-08-03T19:35:35.074Z,26.00
2017-08-03T19:38:01.357Z,26.00
2017-08-03T19:40:28.019Z,25.80
2017-08-03T19:42:54.349Z,25.80
2017-08-03T19:45:20.640Z,25.70
2017-08-03T19:47:48.098Z,25.60
2017-08-03T19:50:16.258Z,25.50
2017-08-03T19:52:42.622Z,25.50
2017-08-03T19:55:08.910Z,25.40
2017-08-03T19:57:35.205Z,25.40
2017-08-03T20:00:01.504Z,25.20
2017-08-03T20:02:27.821Z,25.30
2017-08-03T20:04:54.980Z,25.30
2017-08-03T20:07:30.851Z,25.20
2017-08-03T20:09:59.178Z,25.20
2017-08-03T20:12:25.473Z,25.20
2017-08-03T20:14:51.752Z,25.10
2017-08-03T20:17:18.115Z,25.10
2017-08-03T20:19:44.434Z,25.10
2017-08-03T20:22:11.471Z,25.10
2017-08-03T20:24:38.150Z,25.00
2017-08-03T20:27:04.448Z,25.00
2017-08-03T20:29:31.104Z,25.00
2017-08-03T20:31:57.408Z,24.90
2017-08-03T20:34:24.112Z,25.00
2017-08-03T20:36:50.390Z,25.00
2017-08-03T20:39:16.655Z,25.00
2017-08-03T20:41:42.981Z,24.90
2017-08-03T20:44:09.303Z,24.90
2017-08-03T20:46:35.874Z,24.90
2017-08-03T20:49:02.177Z,24.90
2017-08-03T20:51:29.758Z,24.80
2017-08-03T20:53:56.074Z,24.70
2017-08-03T20:56:22.966Z,24.60
2017-08-03T20:58:49.622Z,24.40
2017-08-03T21:01:15.902Z,24.50
2017-08-03T21:03:42.172Z,24.40
2017-08-03T21:06:08.450Z,24.50
2017-08-03T21:08:35.418Z,24.50
2017-08-03T21:11:01.684Z,24.60
2017-08-03T21:13:28.477Z,24.60
2017-08-03T21:15:54.736Z,24.60
2017-08-03T21:18:22.008Z,24.70
2017-08-03T21:20:49.326Z,24.70
2017-08-03T21:23:15.625Z,24.60
2017-08-03T21:25:42.472Z,24.60
2017-08-03T21:28:09.786Z,24.60
2017-08-03T21:30:39.116Z,24.40
2017-08-03T21:33:06.189Z,24.40
2017-08-03T21:35:32.480Z,24.40
2017-08-03T21:37:58.753Z,24.40
2017-08-03T21:40:25.011Z,24.40
2017-08-03T21:42:51.318Z,24.40
2017-08-03T21:45:18.954Z,24.40
2017-08-03T21:47:45.247Z,24.10
2017-08-03T21:50:11.596Z,24.10
2017-08-03T21:52:37.908Z,24.10
2017-08-03T21:55:04.822Z,24.20
2017-08-03T21:57:31.653Z,24.20
2017-08-03T22:00:01.013Z,24.10
2017-08-03T22:02:27.334Z,24.10
2017-08-03T22:04:54.500Z,24.20
2017-08-03T22:07:21.555Z,24.10
2017-08-03T22:09:48.791Z,24.10
2017-08-03T22:14:49.948Z,24.10
2017-08-03T22:17:16.260Z,23.90
2017-08-03T22:19:42.550Z,23.90
2017-08-03T22:22:09.663Z,23.90
2017-08-03T22:24:35.974Z,23.80
2017-08-03T22:27:02.283Z,23.90
2017-08-03T22:29:28.941Z,24.00
2017-08-03T22:31:55.233Z,24.00
2017-08-03T22:34:22.124Z,24.00
2017-08-03T22:36:48.393Z,24.00
2017-08-03T22:39:14.669Z,24.00
2017-08-03T22:41:40.923Z,24.00
2017-08-03T22:44:07.214Z,24.00
2017-08-03T22:46:33.494Z,23.90
2017-08-03T22:48:59.769Z,23.90
2017-08-03T22:51:26.431Z,23.90
2017-08-03T22:53:52.713Z,23.90
2017-08-03T22:56:19.040Z,23.90
2017-08-03T22:58:45.315Z,24.00
2017-08-03T23:01:11.609Z,23.90
2017-08-03T23:03:37.896Z,23.90
2017-08-03T23:06:05.637Z,23.80
2017-08-03T23:08:31.911Z,23.80
2017-08-03T23:10:59.176Z,23.80
2017-08-03T23:13:25.983Z,23.80
2017-08-03T23:15:52.277Z,23.60
2017-08-03T23:18:18.545Z,23.40
2017-08-03T23:20:44.867Z,23.40
2017-08-03T23:23:11.128Z,23.50
2017-08-03T23:25:37.388Z,23.60
2017-08-03T23:28:03.662Z,23.60
2017-08-03T23:30:29.935Z,23.80
2017-08-03T23:32:56.192Z,23.90
2017-08-03T23:35:22.462Z,23.90
2017-08-03T23:37:48.770Z,24.00
2017-08-03T23:40:15.045Z,24.00
2017-08-03T23:42:42.273Z,23.90
2017-08-03T23:45:08.571Z,23.80
2017-08-03T23:47:34.829Z,23.80
2017-08-03T23:50:01.124Z,23.90
2017-08-03T23:52:27.390Z,23.90
2017-08-03T23:54:53.672Z,23.90
2017-08-03T23:57:21.277Z,24.00
2017-08-03T23:59:47.546Z,24.00
